Flight Track Log - Related Links

Times and Time Zones

All times are in EDT time to prevent confusion due to time zone crossing. See the N2317S flight status page for this flight to view local times or setup timezone preferences in your user account.

Time Position Orientation Groundspeed Altitude Reporting Facility
EDT Latitude Longitude Course Direction KTS MPH feet Rate Location/Type
Sun 09:05:00 AM 44.4719 -73.1533 304° West  Level Estimated
Sun 09:06:00 AM 44.4754 -73.1608 304° West  Level FlightAware Approximate
Sun 09:07:00 AM 44.4790 -73.1683 304° West  Level FlightAware Approximate
Sun 09:08:00 AM 44.4825 -73.1758 304° West  Level FlightAware Approximate
Sun 09:09:00 AM 44.4861 -73.1833 304° West  Level FlightAware Approximate
Sun 09:10:00 AM 44.4896 -73.1908 304° West  Level FlightAware Approximate
Sun 09:11:00 AM 44.4932 -73.1983 304° West  Level FlightAware Approximate
Sun 09:12:00 AM 44.4967 -73.2058 304° West  Level FlightAware Approximate
Sun 09:13:00 AM 44.5003 -73.2133 304° West  Level FlightAware Approximate
Sun 09:14:00 AM 44.5038 -73.2208 304° West  Level FlightAware Approximate
Sun 09:15:00 AM 44.5074 -73.2283 304° West  Level FlightAware Approximate
Sun 09:16:00 AM 44.5109 -73.2358 304° West  Level FlightAware Approximate
Sun 09:17:00 AM 44.5145 -73.2434 304° West  Level FlightAware Approximate
Sun 09:18:00 AM 44.5109 -73.2358 312° West  Level Estimated
Sun 09:19:00 AM 44.5151 -73.2427 310° West  Level FlightAware Approximate
Sun 09:20:00 AM 44.5192 -73.2496 310° West  Level FlightAware Approximate
Sun 09:21:00 AM 44.5234 -73.2565 310° West  Level FlightAware Approximate
Sun 09:22:00 AM 44.5275 -73.2633 310° West  Level FlightAware Approximate
Sun 09:23:00 AM 44.5317 -73.2702 310° West  Level FlightAware Approximate
Sun 09:24:00 AM 44.5359 -73.2771 310° West  Level FlightAware Approximate
Sun 09:25:00 AM 44.5400 -73.2840 310° West  Level FlightAware Approximate
Sun 09:26:00 AM 44.5442 -73.2908 310° West  Level FlightAware Approximate

Login

Don't have an account? Register now (free) for customized features, flight alerts, and more!